sensor_id;sensor_type;location;lat;lon;timestamp;P1;durP1;ratioP1;P2;durP2;ratioP2
15130;SDS011;7666;50.920;4.628;2023-06-22T00:00:19;5.70;;;3.93;;
15130;SDS011;7666;50.920;4.628;2023-06-22T00:03:06;5.10;;;3.87;;
15130;SDS011;7666;50.920;4.628;2023-06-22T00:05:53;4.13;;;3.70;;
15130;SDS011;7666;50.920;4.628;2023-06-22T00:08:39;4.03;;;3.70;;
15130;SDS011;7666;50.920;4.628;2023-06-22T00:11:25;4.47;;;4.03;;
15130;SDS011;7666;50.920;4.628;2023-06-22T00:14:13;4.60;;;4.00;;
15130;SDS011;7666;50.920;4.628;2023-06-22T00:16:59;4.10;;;3.63;;
15130;SDS011;7666;50.920;4.628;2023-06-22T00:19:46;3.77;;;3.33;;
15130;SDS011;7666;50.920;4.628;2023-06-22T00:22:32;4.10;;;3.60;;
15130;SDS011;7666;50.920;4.628;2023-06-22T00:25:24;4.63;;;3.97;;
15130;SDS011;7666;50.920;4.628;2023-06-22T00:28:10;4.50;;;3.80;;
15130;SDS011;7666;50.920;4.628;2023-06-22T00:30:56;4.90;;;3.93;;
15130;SDS011;7666;50.920;4.628;2023-06-22T00:33:42;4.20;;;3.80;;
15130;SDS011;7666;50.920;4.628;2023-06-22T00:36:28;6.00;;;4.00;;
15130;SDS011;7666;50.920;4.628;2023-06-22T00:39:14;7.53;;;4.13;;
15130;SDS011;7666;50.920;4.628;2023-06-22T00:42:00;4.47;;;3.80;;
15130;SDS011;7666;50.920;4.628;2023-06-22T00:44:46;4.13;;;3.80;;
15130;SDS011;7666;50.920;4.628;2023-06-22T00:47:32;4.30;;;3.60;;
15130;SDS011;7666;50.920;4.628;2023-06-22T00:50:21;4.30;;;3.90;;
15130;SDS011;7666;50.920;4.628;2023-06-22T00:53:10;5.70;;;3.90;;
15130;SDS011;7666;50.920;4.628;2023-06-22T00:55:57;6.17;;;3.77;;
15130;SDS011;7666;50.920;4.628;2023-06-22T00:58:45;7.20;;;3.93;;
15130;SDS011;7666;50.920;4.628;2023-06-22T01:01:32;5.80;;;5.30;;
15130;SDS011;7666;50.920;4.628;2023-06-22T01:04:19;6.63;;;4.60;;
15130;SDS011;7666;50.920;4.628;2023-06-22T01:16:27;7.10;;;3.80;;
15130;SDS011;7666;50.920;4.628;2023-06-22T01:19:20;5.20;;;4.30;;
15130;SDS011;7666;50.920;4.628;2023-06-22T01:22:25;5.43;;;4.07;;
15130;SDS011;7666;50.920;4.628;2023-06-22T01:25:20;5.27;;;3.77;;
15130;SDS011;7666;50.920;4.628;2023-06-22T01:31:27;4.67;;;3.40;;
15130;SDS011;7666;50.920;4.628;2023-06-22T01:34:15;5.97;;;3.90;;
15130;SDS011;7666;50.920;4.628;2023-06-22T01:37:02;5.53;;;3.70;;
15130;SDS011;7666;50.920;4.628;2023-06-22T01:39:49;4.40;;;4.00;;
15130;SDS011;7666;50.920;4.628;2023-06-22T01:42:36;5.53;;;4.47;;
15130;SDS011;7666;50.920;4.628;2023-06-22T01:45:22;4.60;;;3.70;;
15130;SDS011;7666;50.920;4.628;2023-06-22T01:48:10;6.27;;;4.20;;
15130;SDS011;7666;50.920;4.628;2023-06-22T01:50:56;6.77;;;3.70;;
15130;SDS011;7666;50.920;4.628;2023-06-22T01:53:42;8.57;;;4.60;;
15130;SDS011;7666;50.920;4.628;2023-06-22T01:56:28;6.30;;;4.23;;
15130;SDS011;7666;50.920;4.628;2023-06-22T01:59:17;6.00;;;4.50;;
15130;SDS011;7666;50.920;4.628;2023-06-22T02:02:27;4.97;;;4.10;;
15130;SDS011;7666;50.920;4.628;2023-06-22T02:05:24;5.67;;;3.97;;
15130;SDS011;7666;50.920;4.628;2023-06-22T02:08:20;4.27;;;3.80;;
15130;SDS011;7666;50.920;4.628;2023-06-22T02:11:09;4.43;;;4.03;;
15130;SDS011;7666;50.920;4.628;2023-06-22T02:13:57;4.90;;;4.03;;
15130;SDS011;7666;50.920;4.628;2023-06-22T02:16:43;5.93;;;3.80;;
15130;SDS011;7666;50.920;4.628;2023-06-22T02:19:30;8.30;;;3.80;;
15130;SDS011;7666;50.920;4.628;2023-06-22T02:22:18;4.97;;;3.50;;
15130;SDS011;7666;50.920;4.628;2023-06-22T02:25:04;5.40;;;3.90;;
15130;SDS011;7666;50.920;4.628;2023-06-22T02:27:50;4.97;;;4.30;;
15130;SDS011;7666;50.920;4.628;2023-06-22T02:30:36;10.20;;;4.60;;
15130;SDS011;7666;50.920;4.628;2023-06-22T02:33:22;7.37;;;4.50;;
15130;SDS011;7666;50.920;4.628;2023-06-22T02:36:08;6.20;;;4.50;;
15130;SDS011;7666;50.920;4.628;2023-06-22T02:38:58;6.00;;;4.67;;
15130;SDS011;7666;50.920;4.628;2023-06-22T02:41:46;5.80;;;4.83;;
15130;SDS011;7666;50.920;4.628;2023-06-22T02:44:32;5.67;;;4.70;;
15130;SDS011;7666;50.920;4.628;2023-06-22T02:47:18;8.73;;;4.90;;
15130;SDS011;7666;50.920;4.628;2023-06-22T02:50:04;6.17;;;5.00;;
15130;SDS011;7666;50.920;4.628;2023-06-22T02:52:50;6.00;;;4.20;;
15130;SDS011;7666;50.920;4.628;2023-06-22T02:55:36;5.53;;;4.60;;
15130;SDS011;7666;50.920;4.628;2023-06-22T02:58:23;5.03;;;4.53;;
15130;SDS011;7666;50.920;4.628;2023-06-22T03:01:09;7.87;;;4.73;;
15130;SDS011;7666;50.920;4.628;2023-06-22T03:03:58;7.80;;;5.10;;
15130;SDS011;7666;50.920;4.628;2023-06-22T03:06:44;5.10;;;4.57;;
15130;SDS011;7666;50.920;4.628;2023-06-22T03:09:36;5.63;;;4.57;;
15130;SDS011;7666;50.920;4.628;2023-06-22T03:12:22;6.47;;;4.40;;
15130;SDS011;7666;50.920;4.628;2023-06-22T03:15:11;11.43;;;5.20;;
15130;SDS011;7666;50.920;4.628;2023-06-22T03:17:58;18.67;;;6.50;;
15130;SDS011;7666;50.920;4.628;2023-06-22T03:20:44;11.50;;;6.27;;
15130;SDS011;7666;50.920;4.628;2023-06-22T03:23:30;9.23;;;5.33;;
15130;SDS011;7666;50.920;4.628;2023-06-22T03:26:16;8.47;;;5.20;;
15130;SDS011;7666;50.920;4.628;2023-06-22T03:29:03;5.10;;;4.60;;
15130;SDS011;7666;50.920;4.628;2023-06-22T03:31:49;9.20;;;4.70;;
15130;SDS011;7666;50.920;4.628;2023-06-22T03:34:35;8.47;;;5.03;;
15130;SDS011;7666;50.920;4.628;2023-06-22T03:37:21;9.33;;;5.40;;
15130;SDS011;7666;50.920;4.628;2023-06-22T03:40:07;10.17;;;5.40;;
15130;SDS011;7666;50.920;4.628;2023-06-22T03:42:54;7.93;;;5.13;;
15130;SDS011;7666;50.920;4.628;2023-06-22T03:45:40;8.93;;;4.93;;
15130;SDS011;7666;50.920;4.628;2023-06-22T03:48:26;9.20;;;5.33;;
15130;SDS011;7666;50.920;4.628;2023-06-22T03:51:12;7.17;;;4.70;;
15130;SDS011;7666;50.920;4.628;2023-06-22T03:53:58;8.53;;;5.20;;
15130;SDS011;7666;50.920;4.628;2023-06-22T03:56:44;8.13;;;5.47;;
15130;SDS011;7666;50.920;4.628;2023-06-22T03:59:30;9.90;;;5.83;;
15130;SDS011;7666;50.920;4.628;2023-06-22T04:02:17;6.77;;;5.90;;
15130;SDS011;7666;50.920;4.628;2023-06-22T04:05:03;6.80;;;6.10;;
15130;SDS011;7666;50.920;4.628;2023-06-22T04:07:50;6.63;;;5.70;;
15130;SDS011;7666;50.920;4.628;2023-06-22T04:10:36;6.03;;;5.27;;
15130;SDS011;7666;50.920;4.628;2023-06-22T04:13:22;7.87;;;6.27;;
15130;SDS011;7666;50.920;4.628;2023-06-22T04:16:08;7.20;;;6.10;;
15130;SDS011;7666;50.920;4.628;2023-06-22T04:18:54;8.33;;;5.97;;
15130;SDS011;7666;50.920;4.628;2023-06-22T04:21:40;11.20;;;5.90;;
15130;SDS011;7666;50.920;4.628;2023-06-22T04:24:26;10.17;;;5.73;;
15130;SDS011;7666;50.920;4.628;2023-06-22T04:27:12;9.57;;;5.77;;
15130;SDS011;7666;50.920;4.628;2023-06-22T04:29:57;8.07;;;5.77;;
15130;SDS011;7666;50.920;4.628;2023-06-22T04:32:45;8.03;;;5.40;;
15130;SDS011;7666;50.920;4.628;2023-06-22T04:35:44;7.87;;;5.57;;
15130;SDS011;7666;50.920;4.628;2023-06-22T04:38:31;9.97;;;5.73;;
15130;SDS011;7666;50.920;4.628;2023-06-22T04:41:18;13.57;;;5.57;;
15130;SDS011;7666;50.920;4.628;2023-06-22T04:44:09;9.50;;;5.80;;
15130;SDS011;7666;50.920;4.628;2023-06-22T04:46:56;8.67;;;6.00;;
15130;SDS011;7666;50.920;4.628;2023-06-22T04:49:45;9.53;;;6.10;;
15130;SDS011;7666;50.920;4.628;2023-06-22T04:52:31;7.87;;;6.60;;
15130;SDS011;7666;50.920;4.628;2023-06-22T04:55:18;8.67;;;6.43;;
15130;SDS011;7666;50.920;4.628;2023-06-22T04:58:05;8.43;;;6.57;;
15130;SDS011;7666;50.920;4.628;2023-06-22T05:00:51;8.93;;;6.20;;
15130;SDS011;7666;50.920;4.628;2023-06-22T05:03:37;6.53;;;5.83;;
15130;SDS011;7666;50.920;4.628;2023-06-22T05:06:23;6.90;;;6.20;;
15130;SDS011;7666;50.920;4.628;2023-06-22T05:09:10;8.17;;;6.40;;
15130;SDS011;7666;50.920;4.628;2023-06-22T05:11:57;9.20;;;6.70;;
15130;SDS011;7666;50.920;4.628;2023-06-22T05:14:45;7.17;;;6.47;;
15130;SDS011;7666;50.920;4.628;2023-06-22T05:17:30;12.00;;;6.23;;
15130;SDS011;7666;50.920;4.628;2023-06-22T05:20:16;12.00;;;7.20;;
15130;SDS011;7666;50.920;4.628;2023-06-22T05:23:03;14.10;;;6.83;;
15130;SDS011;7666;50.920;4.628;2023-06-22T05:25:50;8.40;;;6.53;;
15130;SDS011;7666;50.920;4.628;2023-06-22T05:28:37;7.80;;;5.87;;
15130;SDS011;7666;50.920;4.628;2023-06-22T05:31:23;8.07;;;6.20;;
15130;SDS011;7666;50.920;4.628;2023-06-22T05:34:09;7.23;;;6.53;;
15130;SDS011;7666;50.920;4.628;2023-06-22T05:36:55;7.80;;;7.10;;
15130;SDS011;7666;50.920;4.628;2023-06-22T05:39:41;9.47;;;8.17;;
15130;SDS011;7666;50.920;4.628;2023-06-22T05:42:27;13.00;;;8.50;;
15130;SDS011;7666;50.920;4.628;2023-06-22T05:45:13;9.53;;;8.10;;
15130;SDS011;7666;50.920;4.628;2023-06-22T05:47:59;9.20;;;8.30;;
15130;SDS011;7666;50.920;4.628;2023-06-22T05:50:46;9.47;;;8.47;;
15130;SDS011;7666;50.920;4.628;2023-06-22T05:53:32;9.73;;;8.67;;
15130;SDS011;7666;50.920;4.628;2023-06-22T05:56:18;11.03;;;9.00;;
15130;SDS011;7666;50.920;4.628;2023-06-22T05:59:04;9.37;;;8.40;;
15130;SDS011;7666;50.920;4.628;2023-06-22T06:01:50;9.90;;;8.90;;
15130;SDS011;7666;50.920;4.628;2023-06-22T06:04:36;11.30;;;10.10;;
15130;SDS011;7666;50.920;4.628;2023-06-22T06:07:22;11.63;;;10.47;;
15130;SDS011;7666;50.920;4.628;2023-06-22T06:10:09;13.60;;;10.93;;
15130;SDS011;7666;50.920;4.628;2023-06-22T06:12:55;13.37;;;11.30;;
15130;SDS011;7666;50.920;4.628;2023-06-22T06:15:42;13.27;;;12.03;;
15130;SDS011;7666;50.920;4.628;2023-06-22T06:18:28;15.27;;;12.60;;
15130;SDS011;7666;50.920;4.628;2023-06-22T06:21:14;14.57;;;13.07;;
15130;SDS011;7666;50.920;4.628;2023-06-22T06:23:59;14.90;;;13.50;;
15130;SDS011;7666;50.920;4.628;2023-06-22T06:26:45;14.87;;;13.37;;
15130;SDS011;7666;50.920;4.628;2023-06-22T06:29:32;16.10;;;14.43;;
15130;SDS011;7666;50.920;4.628;2023-06-22T06:32:18;17.10;;;15.07;;
15130;SDS011;7666;50.920;4.628;2023-06-22T06:35:05;18.50;;;14.37;;
15130;SDS011;7666;50.920;4.628;2023-06-22T06:37:52;15.27;;;13.47;;
15130;SDS011;7666;50.920;4.628;2023-06-22T06:40:38;15.97;;;13.37;;
15130;SDS011;7666;50.920;4.628;2023-06-22T06:43:23;15.33;;;13.93;;
15130;SDS011;7666;50.920;4.628;2023-06-22T06:46:10;14.20;;;12.80;;
15130;SDS011;7666;50.920;4.628;2023-06-22T06:48:56;17.40;;;13.40;;
15130;SDS011;7666;50.920;4.628;2023-06-22T06:51:42;15.93;;;13.47;;
15130;SDS011;7666;50.920;4.628;2023-06-22T06:54:28;17.10;;;13.67;;
15130;SDS011;7666;50.920;4.628;2023-06-22T06:57:14;15.40;;;13.80;;
15130;SDS011;7666;50.920;4.628;2023-06-22T07:00:00;15.83;;;14.00;;
15130;SDS011;7666;50.920;4.628;2023-06-22T07:02:46;16.10;;;14.40;;
15130;SDS011;7666;50.920;4.628;2023-06-22T07:05:33;14.80;;;13.37;;
15130;SDS011;7666;50.920;4.628;2023-06-22T07:08:20;15.33;;;13.73;;
15130;SDS011;7666;50.920;4.628;2023-06-22T07:11:06;15.40;;;13.83;;
15130;SDS011;7666;50.920;4.628;2023-06-22T07:13:52;16.13;;;14.53;;
15130;SDS011;7666;50.920;4.628;2023-06-22T07:16:38;16.63;;;14.83;;
15130;SDS011;7666;50.920;4.628;2023-06-22T07:19:27;18.00;;;15.00;;
15130;SDS011;7666;50.920;4.628;2023-06-22T07:22:13;16.60;;;14.23;;
15130;SDS011;7666;50.920;4.628;2023-06-22T07:24:59;17.47;;;15.43;;
15130;SDS011;7666;50.920;4.628;2023-06-22T07:28:02;16.00;;;14.40;;
15130;SDS011;7666;50.920;4.628;2023-06-22T07:30:50;16.43;;;14.77;;
15130;SDS011;7666;50.920;4.628;2023-06-22T07:33:36;16.83;;;14.90;;
15130;SDS011;7666;50.920;4.628;2023-06-22T07:36:22;18.67;;;14.83;;
15130;SDS011;7666;50.920;4.628;2023-06-22T07:39:08;16.10;;;14.50;;
15130;SDS011;7666;50.920;4.628;2023-06-22T07:41:54;16.90;;;14.90;;
15130;SDS011;7666;50.920;4.628;2023-06-22T07:44:40;15.73;;;14.10;;
15130;SDS011;7666;50.920;4.628;2023-06-22T07:47:26;15.97;;;14.30;;
15130;SDS011;7666;50.920;4.628;2023-06-22T07:50:13;17.80;;;15.07;;
15130;SDS011;7666;50.920;4.628;2023-06-22T07:52:59;16.50;;;14.80;;
15130;SDS011;7666;50.920;4.628;2023-06-22T07:55:45;15.70;;;13.97;;
15130;SDS011;7666;50.920;4.628;2023-06-22T07:58:31;18.20;;;15.30;;
15130;SDS011;7666;50.920;4.628;2023-06-22T08:01:17;17.67;;;16.07;;
15130;SDS011;7666;50.920;4.628;2023-06-22T08:04:06;17.50;;;15.53;;
15130;SDS011;7666;50.920;4.628;2023-06-22T08:06:52;16.80;;;15.23;;
15130;SDS011;7666;50.920;4.628;2023-06-22T08:09:39;15.83;;;14.43;;
15130;SDS011;7666;50.920;4.628;2023-06-22T08:12:32;14.57;;;13.07;;
15130;SDS011;7666;50.920;4.628;2023-06-22T08:15:18;13.80;;;12.30;;
15130;SDS011;7666;50.920;4.628;2023-06-22T08:18:04;12.17;;;11.07;;
15130;SDS011;7666;50.920;4.628;2023-06-22T08:20:51;11.37;;;10.27;;
15130;SDS011;7666;50.920;4.628;2023-06-22T08:23:37;12.20;;;9.23;;
15130;SDS011;7666;50.920;4.628;2023-06-22T08:26:23;9.43;;;8.50;;
15130;SDS011;7666;50.920;4.628;2023-06-22T08:29:09;11.50;;;8.60;;
15130;SDS011;7666;50.920;4.628;2023-06-22T08:31:54;9.27;;;8.33;;
15130;SDS011;7666;50.920;4.628;2023-06-22T08:34:40;10.27;;;8.63;;
15130;SDS011;7666;50.920;4.628;2023-06-22T08:37:27;10.83;;;9.83;;
15130;SDS011;7666;50.920;4.628;2023-06-22T08:40:17;9.73;;;8.73;;
15130;SDS011;7666;50.920;4.628;2023-06-22T08:43:04;9.53;;;7.97;;
15130;SDS011;7666;50.920;4.628;2023-06-22T08:45:50;8.80;;;7.90;;
15130;SDS011;7666;50.920;4.628;2023-06-22T08:48:36;11.53;;;8.40;;
15130;SDS011;7666;50.920;4.628;2023-06-22T08:51:22;10.30;;;9.30;;
15130;SDS011;7666;50.920;4.628;2023-06-22T08:54:09;8.77;;;7.93;;
15130;SDS011;7666;50.920;4.628;2023-06-22T08:56:55;11.10;;;7.80;;
15130;SDS011;7666;50.920;4.628;2023-06-22T08:59:42;8.23;;;7.43;;
15130;SDS011;7666;50.920;4.628;2023-06-22T09:02:28;9.17;;;7.90;;
15130;SDS011;7666;50.920;4.628;2023-06-22T09:05:16;8.10;;;6.70;;
15130;SDS011;7666;50.920;4.628;2023-06-22T09:08:02;8.10;;;7.30;;
15130;SDS011;7666;50.920;4.628;2023-06-22T09:10:49;7.90;;;7.10;;
15130;SDS011;7666;50.920;4.628;2023-06-22T09:13:35;8.10;;;7.00;;
15130;SDS011;7666;50.920;4.628;2023-06-22T09:16:22;7.97;;;7.20;;
15130;SDS011;7666;50.920;4.628;2023-06-22T09:19:08;7.07;;;6.43;;
15130;SDS011;7666;50.920;4.628;2023-06-22T09:21:54;10.37;;;7.90;;
15130;SDS011;7666;50.920;4.628;2023-06-22T09:24:40;8.27;;;6.53;;
15130;SDS011;7666;50.920;4.628;2023-06-22T09:27:26;9.57;;;7.20;;
15130;SDS011;7666;50.920;4.628;2023-06-22T09:30:12;9.37;;;7.43;;
15130;SDS011;7666;50.920;4.628;2023-06-22T09:32:58;7.67;;;6.87;;
15130;SDS011;7666;50.920;4.628;2023-06-22T09:35:45;10.20;;;7.03;;
15130;SDS011;7666;50.920;4.628;2023-06-22T09:38:31;8.80;;;6.60;;
15130;SDS011;7666;50.920;4.628;2023-06-22T09:41:17;8.67;;;7.70;;
15130;SDS011;7666;50.920;4.628;2023-06-22T09:44:03;8.07;;;6.70;;
15130;SDS011;7666;50.920;4.628;2023-06-22T09:46:49;8.00;;;7.20;;
15130;SDS011;7666;50.920;4.628;2023-06-22T09:49:35;7.90;;;6.60;;
15130;SDS011;7666;50.920;4.628;2023-06-22T09:52:21;8.60;;;6.97;;
15130;SDS011;7666;50.920;4.628;2023-06-22T09:55:07;9.17;;;8.23;;
15130;SDS011;7666;50.920;4.628;2023-06-22T09:57:53;8.97;;;8.07;;
15130;SDS011;7666;50.920;4.628;2023-06-22T10:00:41;12.37;;;8.33;;
15130;SDS011;7666;50.920;4.628;2023-06-22T10:03:26;10.27;;;8.53;;
15130;SDS011;7666;50.920;4.628;2023-06-22T10:06:12;10.17;;;8.83;;
15130;SDS011;7666;50.920;4.628;2023-06-22T10:08:58;13.30;;;8.93;;
15130;SDS011;7666;50.920;4.628;2023-06-22T10:11:44;12.93;;;9.10;;
15130;SDS011;7666;50.920;4.628;2023-06-22T10:14:30;11.93;;;10.67;;
15130;SDS011;7666;50.920;4.628;2023-06-22T10:17:16;13.43;;;10.77;;
15130;SDS011;7666;50.920;4.628;2023-06-22T10:20:02;11.80;;;10.70;;
15130;SDS011;7666;50.920;4.628;2023-06-22T10:22:57;13.57;;;11.90;;
15130;SDS011;7666;50.920;4.628;2023-06-22T10:25:43;14.13;;;10.97;;
15130;SDS011;7666;50.920;4.628;2023-06-22T10:28:29;12.50;;;11.23;;
15130;SDS011;7666;50.920;4.628;2023-06-22T10:31:15;13.07;;;11.50;;
15130;SDS011;7666;50.920;4.628;2023-06-22T10:34:01;13.60;;;12.30;;
15130;SDS011;7666;50.920;4.628;2023-06-22T10:36:47;13.17;;;11.87;;
15130;SDS011;7666;50.920;4.628;2023-06-22T10:39:33;14.87;;;12.37;;
15130;SDS011;7666;50.920;4.628;2023-06-22T10:42:19;15.23;;;12.77;;
15130;SDS011;7666;50.920;4.628;2023-06-22T10:45:05;15.80;;;14.03;;
15130;SDS011;7666;50.920;4.628;2023-06-22T10:47:52;17.00;;;15.40;;
15130;SDS011;7666;50.920;4.628;2023-06-22T10:50:38;18.63;;;15.30;;
15130;SDS011;7666;50.920;4.628;2023-06-22T10:53:24;17.70;;;15.97;;
15130;SDS011;7666;50.920;4.628;2023-06-22T10:56:10;18.27;;;16.57;;
15130;SDS011;7666;50.920;4.628;2023-06-22T10:58:56;19.73;;;17.70;;
15130;SDS011;7666;50.920;4.628;2023-06-22T11:01:42;22.10;;;19.97;;
15130;SDS011;7666;50.920;4.628;2023-06-22T11:04:28;24.93;;;21.93;;
15130;SDS011;7666;50.920;4.628;2023-06-22T11:07:15;25.37;;;22.73;;
15130;SDS011;7666;50.920;4.628;2023-06-22T11:10:01;25.47;;;23.07;;
15130;SDS011;7666;50.920;4.628;2023-06-22T11:12:47;27.17;;;24.47;;
15130;SDS011;7666;50.920;4.628;2023-06-22T11:15:33;30.13;;;27.33;;
15130;SDS011;7666;50.920;4.628;2023-06-22T11:18:19;32.43;;;29.33;;
15130;SDS011;7666;50.920;4.628;2023-06-22T11:21:05;33.53;;;30.17;;
15130;SDS011;7666;50.920;4.628;2023-06-22T11:23:51;36.93;;;33.30;;
15130;SDS011;7666;50.920;4.628;2023-06-22T11:26:37;36.80;;;33.23;;
15130;SDS011;7666;50.920;4.628;2023-06-22T11:29:23;37.93;;;34.07;;
15130;SDS011;7666;50.920;4.628;2023-06-22T11:32:09;36.60;;;33.20;;
15130;SDS011;7666;50.920;4.628;2023-06-22T11:34:56;37.97;;;33.97;;
15130;SDS011;7666;50.920;4.628;2023-06-22T11:37:42;37.17;;;33.43;;
15130;SDS011;7666;50.920;4.628;2023-06-22T11:40:28;38.20;;;34.50;;
15130;SDS011;7666;50.920;4.628;2023-06-22T11:43:14;37.30;;;33.57;;
15130;SDS011;7666;50.920;4.628;2023-06-22T11:46:00;37.50;;;33.80;;
15130;SDS011;7666;50.920;4.628;2023-06-22T11:48:47;36.90;;;33.30;;
15130;SDS011;7666;50.920;4.628;2023-06-22T11:51:33;35.83;;;32.53;;
15130;SDS011;7666;50.920;4.628;2023-06-22T11:54:19;36.57;;;32.90;;
15130;SDS011;7666;50.920;4.628;2023-06-22T11:57:05;37.93;;;34.13;;
15130;SDS011;7666;50.920;4.628;2023-06-22T11:59:51;37.07;;;33.63;;
15130;SDS011;7666;50.920;4.628;2023-06-22T12:02:37;35.27;;;31.97;;
15130;SDS011;7666;50.920;4.628;2023-06-22T12:05:23;35.33;;;31.87;;
15130;SDS011;7666;50.920;4.628;2023-06-22T12:08:10;33.70;;;30.30;;
15130;SDS011;7666;50.920;4.628;2023-06-22T12:10:56;34.47;;;31.07;;
15130;SDS011;7666;50.920;4.628;2023-06-22T12:13:42;35.30;;;31.57;;
15130;SDS011;7666;50.920;4.628;2023-06-22T12:16:29;34.50;;;31.23;;
15130;SDS011;7666;50.920;4.628;2023-06-22T12:19:15;34.27;;;30.93;;
15130;SDS011;7666;50.920;4.628;2023-06-22T12:22:01;35.47;;;31.93;;
15130;SDS011;7666;50.920;4.628;2023-06-22T12:24:47;35.37;;;31.90;;
15130;SDS011;7666;50.920;4.628;2023-06-22T12:27:33;35.10;;;31.90;;
15130;SDS011;7666;50.920;4.628;2023-06-22T12:30:19;35.20;;;31.63;;
15130;SDS011;7666;50.920;4.628;2023-06-22T12:33:05;36.20;;;32.47;;
15130;SDS011;7666;50.920;4.628;2023-06-22T12:35:51;37.83;;;34.17;;
15130;SDS011;7666;50.920;4.628;2023-06-22T12:38:37;35.37;;;31.93;;
15130;SDS011;7666;50.920;4.628;2023-06-22T12:41:23;36.80;;;33.30;;
15130;SDS011;7666;50.920;4.628;2023-06-22T12:44:09;36.67;;;32.80;;
15130;SDS011;7666;50.920;4.628;2023-06-22T12:46:55;38.00;;;34.00;;
15130;SDS011;7666;50.920;4.628;2023-06-22T12:49:42;37.27;;;33.63;;
15130;SDS011;7666;50.920;4.628;2023-06-22T12:52:29;36.93;;;33.13;;
15130;SDS011;7666;50.920;4.628;2023-06-22T12:55:16;35.87;;;32.23;;
15130;SDS011;7666;50.920;4.628;2023-06-22T12:58:02;35.20;;;31.80;;
15130;SDS011;7666;50.920;4.628;2023-06-22T13:00:48;34.90;;;31.50;;
15130;SDS011;7666;50.920;4.628;2023-06-22T13:03:34;36.37;;;32.60;;
15130;SDS011;7666;50.920;4.628;2023-06-22T13:06:20;36.47;;;32.67;;
15130;SDS011;7666;50.920;4.628;2023-06-22T13:09:06;36.27;;;32.77;;
15130;SDS011;7666;50.920;4.628;2023-06-22T13:11:52;39.00;;;35.37;;
15130;SDS011;7666;50.920;4.628;2023-06-22T13:14:38;40.57;;;36.37;;
15130;SDS011;7666;50.920;4.628;2023-06-22T13:17:24;40.70;;;36.40;;
15130;SDS011;7666;50.920;4.628;2023-06-22T13:20:10;40.93;;;36.73;;
15130;SDS011;7666;50.920;4.628;2023-06-22T13:22:56;41.37;;;37.17;;
15130;SDS011;7666;50.920;4.628;2023-06-22T13:25:42;41.83;;;37.43;;
15130;SDS011;7666;50.920;4.628;2023-06-22T13:28:28;42.00;;;37.80;;
15130;SDS011;7666;50.920;4.628;2023-06-22T13:31:15;43.77;;;39.27;;
15130;SDS011;7666;50.920;4.628;2023-06-22T13:34:01;42.27;;;38.07;;
15130;SDS011;7666;50.920;4.628;2023-06-22T13:36:47;44.27;;;39.77;;
15130;SDS011;7666;50.920;4.628;2023-06-22T13:39:33;43.50;;;39.00;;
15130;SDS011;7666;50.920;4.628;2023-06-22T13:42:19;43.40;;;39.17;;
15130;SDS011;7666;50.920;4.628;2023-06-22T13:45:05;44.80;;;40.13;;
15130;SDS011;7666;50.920;4.628;2023-06-22T13:47:52;44.23;;;39.73;;
15130;SDS011;7666;50.920;4.628;2023-06-22T13:50:38;44.67;;;40.17;;
15130;SDS011;7666;50.920;4.628;2023-06-22T13:53:24;44.60;;;40.10;;
15130;SDS011;7666;50.920;4.628;2023-06-22T13:56:11;44.73;;;40.17;;
15130;SDS011;7666;50.920;4.628;2023-06-22T13:58:57;45.73;;;40.73;;
15130;SDS011;7666;50.920;4.628;2023-06-22T14:01:43;45.57;;;40.87;;
15130;SDS011;7666;50.920;4.628;2023-06-22T14:04:29;45.03;;;40.47;;
15130;SDS011;7666;50.920;4.628;2023-06-22T14:07:15;46.77;;;41.97;;
15130;SDS011;7666;50.920;4.628;2023-06-22T14:10:01;48.10;;;43.07;;
15130;SDS011;7666;50.920;4.628;2023-06-22T14:12:47;47.33;;;42.30;;
15130;SDS011;7666;50.920;4.628;2023-06-22T14:15:33;45.83;;;41.03;;
15130;SDS011;7666;50.920;4.628;2023-06-22T14:18:19;45.30;;;40.70;;
15130;SDS011;7666;50.920;4.628;2023-06-22T14:21:07;46.27;;;41.57;;
15130;SDS011;7666;50.920;4.628;2023-06-22T14:23:53;47.87;;;42.70;;
15130;SDS011;7666;50.920;4.628;2023-06-22T14:26:39;46.30;;;41.60;;
15130;SDS011;7666;50.920;4.628;2023-06-22T14:29:25;48.73;;;43.97;;
15130;SDS011;7666;50.920;4.628;2023-06-22T14:32:11;50.63;;;45.53;;
15130;SDS011;7666;50.920;4.628;2023-06-22T14:34:57;51.53;;;46.13;;
15130;SDS011;7666;50.920;4.628;2023-06-22T14:37:43;53.37;;;47.77;;
15130;SDS011;7666;50.920;4.628;2023-06-22T14:40:29;51.90;;;46.63;;
15130;SDS011;7666;50.920;4.628;2023-06-22T14:43:15;51.43;;;46.17;;
15130;SDS011;7666;50.920;4.628;2023-06-22T14:46:01;52.57;;;47.23;;
15130;SDS011;7666;50.920;4.628;2023-06-22T14:48:47;53.40;;;46.97;;
15130;SDS011;7666;50.920;4.628;2023-06-22T14:51:33;51.97;;;46.63;;
15130;SDS011;7666;50.920;4.628;2023-06-22T14:54:19;49.30;;;44.50;;
15130;SDS011;7666;50.920;4.628;2023-06-22T14:57:05;49.10;;;44.20;;
15130;SDS011;7666;50.920;4.628;2023-06-22T14:59:51;49.40;;;44.50;;
15130;SDS011;7666;50.920;4.628;2023-06-22T15:02:37;47.77;;;42.97;;
15130;SDS011;7666;50.920;4.628;2023-06-22T15:05:23;47.63;;;42.87;;
15130;SDS011;7666;50.920;4.628;2023-06-22T15:08:09;48.13;;;43.33;;
15130;SDS011;7666;50.920;4.628;2023-06-22T15:10:57;47.67;;;42.97;;
15130;SDS011;7666;50.920;4.628;2023-06-22T15:13:46;49.30;;;44.33;;
15130;SDS011;7666;50.920;4.628;2023-06-22T15:16:32;49.17;;;44.03;;
15130;SDS011;7666;50.920;4.628;2023-06-22T15:19:18;50.07;;;45.07;;
15130;SDS011;7666;50.920;4.628;2023-06-22T15:22:05;48.27;;;43.37;;
15130;SDS011;7666;50.920;4.628;2023-06-22T15:24:51;51.17;;;45.87;;
15130;SDS011;7666;50.920;4.628;2023-06-22T15:27:43;48.03;;;43.37;;
15130;SDS011;7666;50.920;4.628;2023-06-22T15:30:29;49.27;;;44.17;;
15130;SDS011;7666;50.920;4.628;2023-06-22T15:33:16;46.00;;;41.77;;
15130;SDS011;7666;50.920;4.628;2023-06-22T15:36:02;44.20;;;40.00;;
15130;SDS011;7666;50.920;4.628;2023-06-22T15:38:49;46.90;;;42.10;;
15130;SDS011;7666;50.920;4.628;2023-06-22T15:41:35;45.10;;;40.63;;
15130;SDS011;7666;50.920;4.628;2023-06-22T15:44:21;48.03;;;43.33;;
15130;SDS011;7666;50.920;4.628;2023-06-22T15:47:07;50.80;;;45.50;;
15130;SDS011;7666;50.920;4.628;2023-06-22T15:49:53;47.90;;;43.07;;
15130;SDS011;7666;50.920;4.628;2023-06-22T15:52:42;46.57;;;42.13;;
15130;SDS011;7666;50.920;4.628;2023-06-22T15:55:32;48.80;;;44.00;;
15130;SDS011;7666;50.920;4.628;2023-06-22T15:58:20;49.57;;;44.80;;
15130;SDS011;7666;50.920;4.628;2023-06-22T16:01:07;49.90;;;45.03;;
15130;SDS011;7666;50.920;4.628;2023-06-22T16:03:54;48.07;;;43.43;;
15130;SDS011;7666;50.920;4.628;2023-06-22T16:06:40;48.07;;;43.23;;
15130;SDS011;7666;50.920;4.628;2023-06-22T16:09:27;48.77;;;43.73;;
15130;SDS011;7666;50.920;4.628;2023-06-22T16:12:13;46.37;;;41.73;;
15130;SDS011;7666;50.920;4.628;2023-06-22T16:15:00;45.53;;;41.10;;
15130;SDS011;7666;50.920;4.628;2023-06-22T16:17:46;46.20;;;41.40;;
15130;SDS011;7666;50.920;4.628;2023-06-22T16:20:32;44.03;;;39.83;;
15130;SDS011;7666;50.920;4.628;2023-06-22T16:23:18;43.37;;;38.97;;
15130;SDS011;7666;50.920;4.628;2023-06-22T16:26:04;42.27;;;38.23;;
15130;SDS011;7666;50.920;4.628;2023-06-22T16:28:50;38.90;;;34.90;;
15130;SDS011;7666;50.920;4.628;2023-06-22T16:31:37;38.97;;;35.00;;
15130;SDS011;7666;50.920;4.628;2023-06-22T16:34:23;36.03;;;32.47;;
15130;SDS011;7666;50.920;4.628;2023-06-22T16:37:09;35.87;;;32.20;;
15130;SDS011;7666;50.920;4.628;2023-06-22T16:39:55;35.10;;;31.33;;
15130;SDS011;7666;50.920;4.628;2023-06-22T16:42:44;35.20;;;31.80;;
15130;SDS011;7666;50.920;4.628;2023-06-22T16:45:30;37.47;;;33.90;;
15130;SDS011;7666;50.920;4.628;2023-06-22T16:48:18;38.77;;;34.93;;
15130;SDS011;7666;50.920;4.628;2023-06-22T16:51:04;40.03;;;35.73;;
15130;SDS011;7666;50.920;4.628;2023-06-22T16:53:54;42.67;;;38.23;;